^^
Saratoga-Weather Station Historical Data
Daily Summary for May 22, 2020 Units:  English    Metric   Both
Daily Weekly Monthly Yearly Custom
  High: Low: Average:
Temperature: 39.4 °F 34.2 °F 37.2 °F
Dew Point: 35.6 °F 31.5 °F 33.8 °F
Humidity: 93% 84% 87%
Wind Speed: 4mph 0mph 1.1mph
Wind Gust: 8mph - -
Wind- - ESE
Pressure: 30.4 in 30.3 in -
Precipitation: 0 in    
Historical Graphs
 
 
Tabular Data for May 22, 2020
Time Temperature Dew Point Pressure Wind Wind Speed Wind Gust Humidity Rainfall Rate (Hourly) solar
00:02 38.3 °F 35.1 °F 30.4 in East 2 mph 3 mph 88% 0 in 0 W/m2
00:07 38.7 °F 35.4 °F 30.4 in East 4 mph 4 mph 88% 0 in 0 W/m2
00:12 38.8 °F 35.2 °F 30.4 in East 0.9 mph 3 mph 87% 0 in 0 W/m2
00:17 38.7 °F 35.1 °F 30.4 in Calm   2 mph 87% 0 in 0 W/m2
00:22 38.7 °F 35.1 °F 30.4 in SW 0.9 mph 2 mph 87% 0 in 0 W/m2
00:27 38.7 °F 35.1 °F 30.4 in ESE 0.9 mph 3 mph 87% 0 in 0 W/m2
00:32 38.8 °F 35.2 °F 30.4 in North 2.9 mph 5 mph 87% 0 in 0 W/m2
00:37 39 °F 35.4 °F 30.4 in Calm   1 mph 87% 0 in 0 W/m2
00:42 39 °F 35.2 °F 30.4 in Calm   5 mph 86% 0 in 0 W/m2
00:47 39.2 °F 35.4 °F 30.4 in Calm   3 mph 86% 0 in 0 W/m2
00:52 39.2 °F 35.4 °F 30.4 in Calm   1 mph 86% 0 in 0 W/m2
00:57 39.4 °F 35.6 °F 30.4 in Calm   2 mph 86% 0 in 0 W/m2
01:02 39.4 °F 35.2 °F 30.4 in SSW 0.9 mph 2 mph 85% 0 in 0 W/m2
01:07 39.2 °F 35.1 °F 30.4 in ENE 0.9 mph 3 mph 85% 0 in 0 W/m2
01:12 39 °F 34.9 °F 30.4 in ESE 2 mph 4 mph 85% 0 in 0 W/m2
01:18 38.8 °F 35.1 °F 30.4 in ESE 0.9 mph 2 mph 86% 0 in 0 W/m2
01:23 38.8 °F 35.1 °F 30.4 in East 2 mph 5 mph 86% 0 in 0 W/m2
01:28 38.7 °F 34.9 °F 30.4 in Calm   2 mph 86% 0 in 0 W/m2
01:33 38.5 °F 34.3 °F 30.4 in East 0.9 mph 5 mph 85% 0 in 0 W/m2
01:38 38.5 °F 34.7 °F 30.4 in SE 0.9 mph 3 mph 86% 0 in 0 W/m2
01:43 38.3 °F 34.7 °F 30.4 in ESE 0.9 mph 2 mph 87% 0 in 0 W/m2
01:48 38.7 °F 34.9 °F 30.4 in SE 2.9 mph 6 mph 86% 0 in 0 W/m2
01:53 39 °F 35.2 °F 30.4 in SSE 0.9 mph 1 mph 86% 0 in 0 W/m2
01:58 39 °F 34.9 °F 30.4 in SSW 2 mph 2 mph 85% 0 in 0 W/m2
02:03 39 °F 34.9 °F 30.4 in Calm   1 mph 85% 0 in 0 W/m2
02:08 38.8 °F 34.3 °F 30.4 in ENE 2.9 mph 3 mph 84% 0 in 0 W/m2
02:13 38.8 °F 34.7 °F 30.4 in Calm     85% 0 in 0 W/m2
02:18 38.8 °F 34.3 °F 30.4 in Calm   1 mph 84% 0 in 0 W/m2
02:23 38.7 °F 34.5 °F 30.4 in Calm   4 mph 85% 0 in 0 W/m2
02:28 38.7 °F 34.5 °F 30.4 in Calm   3 mph 85% 0 in 0 W/m2
02:33 38.8 °F 34.7 °F 30.4 in Calm   4 mph 85% 0 in 0 W/m2
02:38 38.8 °F 34.3 °F 30.4 in ENE 0.9 mph 2 mph 84% 0 in 0 W/m2
02:44 38.8 °F 34.3 °F 30.4 in ESE 2.9 mph 6 mph 84% 0 in 0 W/m2
02:49 38.8 °F 34.3 °F 30.4 in ENE 2 mph 2 mph 84% 0 in 0 W/m2
02:54 38.7 °F 34.2 °F 30.4 in ESE 2 mph 4 mph 84% 0 in 0 W/m2
02:59 38.5 °F 34.2 °F 30.4 in SSE 0.9 mph 2 mph 84% 0 in 0 W/m2
03:04 37.9 °F 33.8 °F 30.4 in SE 0.9 mph 2 mph 85% 0 in 0 W/m2
03:09 37.6 °F 33.4 °F 30.4 in ESE 2 mph 2 mph 85% 0 in 0 W/m2
03:14 37.4 °F 33.6 °F 30.4 in Calm   1 mph 86% 0 in 0 W/m2
03:19 37 °F 33.3 °F 30.4 in Calm   3 mph 86% 0 in 0 W/m2
03:24 37 °F 33.6 °F 30.4 in NE 0.9 mph 2 mph 87% 0 in 0 W/m2
03:29 37 °F 33.6 °F 30.4 in East 0.9 mph 3 mph 87% 0 in 0 W/m2
03:34 37 °F 33.6 °F 30.3 in East 0.9 mph 3 mph 87% 0 in 0 W/m2
03:39 37 °F 33.6 °F 30.3 in NE 2.9 mph 4 mph 87% 0 in 0 W/m2
03:44 37.4 °F 33.8 °F 30.3 in East 2.9 mph 3 mph 87% 0 in 0 W/m2
03:49 37.2 °F 33.8 °F 30.3 in North 2.9 mph 3 mph 87% 0 in 0 W/m2
03:54 37.6 °F 34 °F 30.3 in SE 2 mph 3 mph 87% 0 in 0 W/m2
03:59 37.8 °F 34.2 °F 30.3 in Calm   3 mph 87% 0 in 0 W/m2
04:04 38.1 °F 34.5 °F 30.3 in Calm   5 mph 87% 0 in 0 W/m2
04:09 38.1 °F 34.3 °F 30.3 in NNE 0.9 mph 2 mph 86% 0 in 0 W/m2
04:14 38.1 °F 34.3 °F 30.3 in Calm   3 mph 86% 0 in 0 W/m2
04:19 38.1 °F 34.3 °F 30.3 in NE 0.9 mph 3 mph 86% 0 in 0 W/m2
04:24 38.1 °F 34.3 °F 30.3 in Calm   2 mph 86% 0 in 0 W/m2
04:29 38.1 °F 34.3 °F 30.3 in Calm   4 mph 86% 0 in 0 W/m2
04:34 38.5 °F 34.3 °F 30.3 in East 2.9 mph 4 mph 85% 0 in 0 W/m2
04:39 38.5 °F 34.3 °F 30.3 in ENE 0.9 mph 3 mph 85% 0 in 0 W/m2
04:44 38.1 °F 34 °F 30.3 in SSE 0.9 mph 4 mph 85% 0 in 0 W/m2
04:49 38.1 °F 34 °F 30.3 in SSE 2.9 mph 4 mph 85% 0 in 0 W/m2
04:54 37.9 °F 33.8 °F 30.3 in East 2 mph 3 mph 85% 0 in 0 W/m2
04:59 37.8 °F 34 °F 30.3 in SE 0.9 mph 8 mph 86% 0 in 0 W/m2
05:04 37.8 °F 34 °F 30.3 in ENE 2 mph 2 mph 86% 0 in 0 W/m2
05:09 37.6 °F 33.8 °F 30.3 in East 2 mph 8 mph 86% 0 in 0 W/m2
05:14 37.2 °F 33.4 °F 30.3 in Calm   1 mph 86% 0 in 0 W/m2
05:19 36.9 °F 33.1 °F 30.3 in Calm   1 mph 86% 0 in 0 W/m2
05:24 36.5 °F 33.1 °F 30.3 in Calm   2 mph 87% 0 in 0 W/m2
05:29 36.3 °F 32.9 °F 30.3 in East 2 mph 2 mph 87% 0 in 0 W/m2
05:35 36.3 °F 33.1 °F 30.3 in ENE 0.9 mph 3 mph 88% 0 in 0 W/m2
05:40 36.3 °F 33.1 °F 30.3 in SSW 2.9 mph 3 mph 88% 0 in 0 W/m2
05:45 36.1 °F 32.9 °F 30.3 in Calm   1 mph 88% 0 in 0 W/m2
05:50 36.1 °F 32.9 °F 30.3 in East 2 mph 3 mph 88% 0 in 0 W/m2
05:55 36.3 °F 33.4 °F 30.3 in Calm   2 mph 89% 0 in 0 W/m2
06:00 36.3 °F 33.4 °F 30.3 in Calm   2 mph 89% 0 in 0 W/m2
06:05 36 °F 32.7 °F 30.3 in ESE 2 mph 3 mph 88% 0 in 0 W/m2
06:10 35.8 °F 32.5 °F 30.3 in East 0.9 mph 3 mph 88% 0 in 0 W/m2
06:15 35.6 °F 32.4 °F 30.3 in Calm   3 mph 88% 0 in 0 W/m2
06:20 35.2 °F 32.4 °F 30.3 in ESE 0.9 mph 3 mph 89% 0 in 0 W/m2
06:25 35.1 °F 32.2 °F 30.3 in ESE 2 mph 2 mph 89% 0 in 0 W/m2
06:30 34.9 °F 32 °F 30.3 in ESE 2.9 mph 7 mph 89% 0 in 0 W/m2
06:35 35.1 °F 32.4 °F 30.3 in ESE 2.9 mph 3 mph 90% 0 in 0 W/m2
06:40 35.2 °F 32.5 °F 30.3 in ESE 2 mph 7 mph 90% 0 in 0 W/m2
06:45 35.2 °F 32.5 °F 30.3 in East 2.9 mph 3 mph 90% 0 in 0 W/m2
06:50 35.4 °F 32.7 °F 30.3 in Calm   3 mph 90% 0 in 0 W/m2
06:55 35.4 °F 32.7 °F 30.3 in East 2 mph 2 mph 90% 0 in 0 W/m2
07:00 35.4 °F 32.7 °F 30.3 in SE 2 mph 6 mph 90% 0 in 0 W/m2
07:05 35.2 °F 32.5 °F 30.3 in East 0.9 mph 3 mph 90% 0 in 0 W/m2
07:10 35.2 °F 32.5 °F 30.3 in South 0.9 mph 3 mph 90% 0 in 0 W/m2
07:15 35.1 °F 32.4 °F 30.3 in ENE 0.9 mph 1 mph 90% 0 in 0 W/m2
07:20 34.9 °F 32.2 °F 30.3 in Calm   2 mph 90% 0 in 0 W/m2
07:25 34.5 °F 31.8 °F 30.3 in ENE 0.9 mph 1 mph 90% 0 in 0 W/m2
07:30 34.3 °F 31.6 °F 30.3 in Calm     90% 0 in 0 W/m2
07:35 34.2 °F 31.5 °F 30.3 in Calm   1 mph 90% 0 in 5 W/m2
07:41 34.2 °F 31.8 °F 30.3 in Calm   1 mph 91% 0 in 7 W/m2
07:46 34.3 °F 32.2 °F 30.3 in South 2 mph 4 mph 92% 0 in 11 W/m2
07:51 34.5 °F 32.4 °F 30.3 in Calm   1 mph 92% 0 in 12 W/m2
07:56 34.9 °F 32.7 °F 30.3 in ENE 0.9 mph 4 mph 92% 0 in 12 W/m2
08:01 35.6 °F 33.8 °F 30.3 in East 2.9 mph 4 mph 93% 0 in 18 W/m2
08:06 36 °F 33.6 °F 30.3 in ESE 2 mph 3 mph 91% 0 in 19 W/m2
08:11 36.1 °F 33.4 °F 30.3 in Calm   3 mph 90% 0 in 25 W/m2
08:16 36 °F 33.3 °F 30.3 in ESE 2 mph 4 mph 90% 0 in 25 W/m2
08:21 36 °F 33.3 °F 30.3 in Calm   3 mph 90% 0 in 28 W/m2
08:26 36 °F 33.3 °F 30.3 in East 2 mph 4 mph 90% 0 in 33 W/m2
08:31 36.3 °F 34 °F 30.3 in NW 2.9 mph 6 mph 91% 0 in 42 W/m2
Juneau County Weather
Compliments of Weather Underground - 4 mb